createdAt,value
2022-11-18T00:01:29.019Z,100890.50
2022-11-18T00:03:57.154Z,100890.96
2022-11-18T00:06:27.750Z,100877.35
2022-11-18T00:08:56.555Z,100884.48
2022-11-18T00:11:45.096Z,100903.56
2022-11-18T00:14:23.589Z,100903.17
2022-11-18T00:16:59.675Z,100900.23
2022-11-18T00:19:34.279Z,100890.02
2022-11-18T00:22:04.120Z,100895.50
2022-11-18T00:24:32.547Z,100900.17
2022-11-18T00:27:01.160Z,100899.33
2022-11-18T00:29:31.021Z,100889.36
2022-11-18T00:31:59.220Z,100887.55
2022-11-18T00:34:27.427Z,100878.15
2022-11-18T00:36:55.705Z,100875.10
2022-11-18T00:39:24.244Z,100875.38
2022-11-18T00:42:10.984Z,100876.17
2022-11-18T00:44:39.203Z,100875.56
2022-11-18T00:47:07.407Z,100874.32
2022-11-18T00:49:35.558Z,100884.59
2022-11-18T00:52:04.137Z,100880.81
2022-11-18T00:54:32.299Z,100883.72
2022-11-18T00:57:00.678Z,100879.84
2022-11-18T00:59:28.815Z,100875.98
2022-11-18T01:01:57.780Z,100875.09
2022-11-18T01:04:25.980Z,100874.09
2022-11-18T01:06:56.700Z,100870.93
2022-11-18T01:09:25.039Z,100867.88
2022-11-18T01:12:11.697Z,100866.35
2022-11-18T01:14:40.499Z,100862.49
2022-11-18T01:17:08.945Z,100866.78
2022-11-18T01:19:37.580Z,100866.24
2022-11-18T01:22:05.932Z,100865.12
2022-11-18T01:24:34.408Z,100869.36
2022-11-18T01:27:02.952Z,100868.75
2022-11-18T01:29:31.354Z,100868.92
2022-11-18T01:32:23.218Z,100871.54
2022-11-18T01:34:47.909Z,100864.27
2022-11-18T01:37:16.144Z,100860.56
2022-11-18T01:39:44.291Z,100863.89
2022-11-18T01:42:17.948Z,100856.13
2022-11-18T01:45:10.852Z,100851.67
2022-11-18T01:47:49.879Z,100847.66
2022-11-18T01:50:21.008Z,100845.73
2022-11-18T01:52:52.036Z,100847.77
2022-11-18T01:55:26.342Z,100843.84
2022-11-18T01:58:21.528Z,100843.65
2022-11-18T02:00:50.359Z,100845.25
2022-11-18T02:03:19.317Z,100842.40
2022-11-18T02:05:49.385Z,100844.32
2022-11-18T02:08:19.265Z,100843.63
2022-11-18T02:10:47.369Z,100841.95
2022-11-18T02:13:15.915Z,100836.79
2022-11-18T02:15:48.198Z,100837.71
2022-11-18T02:18:54.021Z,100838.98
2022-11-18T02:21:39.769Z,100840.65
2022-11-18T02:24:43.404Z,100840.91
2022-11-18T02:27:20.229Z,100842.14
2022-11-18T02:29:53.829Z,100837.25
2022-11-18T02:32:30.197Z,100841.59
2022-11-18T02:35:13.871Z,100837.67
2022-11-18T02:38:00.469Z,100840.88
2022-11-18T02:40:43.417Z,100839.60
2022-11-18T02:43:28.080Z,100829.02
2022-11-18T02:46:02.457Z,100843.97
2022-11-18T02:48:36.130Z,100846.41
2022-11-18T02:51:07.735Z,100843.95
2022-11-18T02:53:38.497Z,100843.95
2022-11-18T02:56:08.952Z,100832.17
2022-11-18T02:58:37.122Z,100843.30
2022-11-18T03:01:05.324Z,100840.58
2022-11-18T03:03:35.937Z,100841.13
2022-11-18T03:06:29.722Z,100844.02
2022-11-18T03:09:02.789Z,100845.11
2022-11-18T03:12:01.845Z,100842.61
2022-11-18T03:15:00.320Z,100845.20
2022-11-18T03:17:43.502Z,100847.15
2022-11-18T03:20:22.837Z,100850.98
2022-11-18T03:23:08.241Z,100853.59
2022-11-18T03:25:56.915Z,100855.27
2022-11-18T03:28:43.664Z,100853.80
2022-11-18T03:31:24.581Z,100852.46
2022-11-18T03:33:59.803Z,100840.65
2022-11-18T03:36:33.636Z,100833.39
2022-11-18T03:39:05.396Z,100852.34
2022-11-18T03:41:38.860Z,100852.83
2022-11-18T03:44:14.133Z,100851.43
2022-11-18T03:46:47.025Z,100853.10
2022-11-18T03:49:24.744Z,100853.93
2022-11-18T03:51:58.354Z,100855.30
2022-11-18T03:54:32.345Z,100856.30
2022-11-18T03:57:12.336Z,100859.01
2022-11-18T03:59:43.882Z,100856.00
2022-11-18T04:02:20.246Z,100855.94
2022-11-18T04:04:51.344Z,100855.64
2022-11-18T04:07:34.632Z,100854.80
2022-11-18T04:10:16.572Z,100834.91
2022-11-18T04:13:08.228Z,100846.67
2022-11-18T04:15:42.665Z,100845.52
2022-11-18T04:18:11.562Z,100845.95
2022-11-18T04:20:39.799Z,100845.98
2022-11-18T04:23:08.385Z,100847.44
2022-11-18T04:25:36.628Z,100835.29
2022-11-18T04:28:05.483Z,100845.48
2022-11-18T04:30:34.288Z,100843.12
2022-11-18T04:33:02.473Z,100848.77
2022-11-18T04:35:30.585Z,100845.65
2022-11-18T04:37:58.854Z,100850.38
2022-11-18T04:40:26.986Z,100852.47
2022-11-18T04:42:55.377Z,100856.16
2022-11-18T04:45:23.445Z,100837.36
2022-11-18T04:47:51.995Z,100857.17
2022-11-18T04:50:20.144Z,100856.54
2022-11-18T04:52:48.227Z,100848.75
2022-11-18T04:55:16.350Z,100856.50
2022-11-18T04:57:44.456Z,100855.80
2022-11-18T05:00:12.912Z,100851.70
2022-11-18T05:02:41.147Z,100827.62
2022-11-18T05:05:09.513Z,100847.80
2022-11-18T05:07:37.852Z,100851.77
2022-11-18T05:10:06.429Z,100849.97
2022-11-18T05:12:50.169Z,100854.06
2022-11-18T05:15:19.090Z,100849.11
2022-11-18T05:17:47.740Z,100859.27
2022-11-18T05:20:16.728Z,100844.23
2022-11-18T05:22:45.661Z,100861.00
2022-11-18T05:25:13.811Z,100866.90
2022-11-18T05:27:41.943Z,100863.23
2022-11-18T05:30:10.732Z,100864.90
2022-11-18T05:32:39.065Z,100865.37
2022-11-18T05:35:07.630Z,100868.77
2022-11-18T05:37:35.735Z,100874.48
2022-11-18T05:40:04.567Z,100873.20
2022-11-18T05:42:51.055Z,100879.48
2022-11-18T05:45:20.614Z,100880.48
2022-11-18T05:48:00.754Z,100876.44
2022-11-18T05:50:29.235Z,100861.21
2022-11-18T05:52:58.350Z,100876.60
2022-11-18T05:55:31.815Z,100875.08
2022-11-18T05:58:01.099Z,100878.45
2022-11-18T06:00:29.990Z,100884.68
2022-11-18T06:02:59.461Z,100889.44
2022-11-18T06:05:27.839Z,100891.41
2022-11-18T06:07:57.890Z,100895.09
2022-11-18T06:10:33.354Z,100896.35
2022-11-18T06:13:07.548Z,100900.98
2022-11-18T06:15:41.053Z,100902.80
2022-11-18T06:18:26.216Z,100906.53
2022-11-18T06:20:59.803Z,100905.59
2022-11-18T06:23:31.187Z,100902.42
2022-11-18T06:25:59.632Z,100906.58
2022-11-18T06:28:29.155Z,100907.37
2022-11-18T06:30:59.159Z,100913.06
2022-11-18T06:33:27.281Z,100912.84
2022-11-18T06:35:55.396Z,100915.80
2022-11-18T06:38:25.244Z,100916.92
2022-11-18T06:40:53.359Z,100922.25
2022-11-18T06:43:41.556Z,100928.30
2022-11-18T06:46:34.763Z,100912.90
2022-11-18T06:49:03.622Z,100928.61
2022-11-18T06:51:32.198Z,100927.95
2022-11-18T06:54:02.738Z,100925.96
2022-11-18T06:56:34.424Z,100929.98
2022-11-18T06:59:02.904Z,100928.11
2022-11-18T07:01:34.595Z,100931.38
2022-11-18T07:04:03.029Z,100931.67
2022-11-18T07:06:33.971Z,100934.46
2022-11-18T07:09:04.456Z,100935.76
2022-11-18T07:11:32.987Z,100938.23
2022-11-18T07:14:01.475Z,100940.54
2022-11-18T07:16:29.833Z,100944.00
2022-11-18T07:18:58.147Z,100943.42
2022-11-18T07:21:28.925Z,100944.32
2022-11-18T07:23:57.425Z,100945.35
2022-11-18T07:26:25.866Z,100946.15
2022-11-18T07:28:54.485Z,100941.23
2022-11-18T07:31:22.785Z,100939.94
2022-11-18T07:33:54.834Z,100945.98
2022-11-18T07:36:27.732Z,100946.59
2022-11-18T07:39:02.066Z,100944.83
2022-11-18T07:41:31.300Z,100942.95
2022-11-18T07:44:01.948Z,100944.40
2022-11-18T07:46:36.708Z,100943.77
2022-11-18T07:49:07.669Z,100942.38
2022-11-18T07:51:39.758Z,100948.61
2022-11-18T07:54:13.046Z,100938.10
2022-11-18T07:56:41.388Z,100951.89
2022-11-18T07:59:09.630Z,100947.05
2022-11-18T08:01:38.338Z,100949.58
2022-11-18T08:04:12.153Z,100934.67
2022-11-18T08:06:40.794Z,100948.80
2022-11-18T08:09:09.543Z,100934.02
2022-11-18T08:11:37.948Z,100934.80
2022-11-18T08:14:06.562Z,100949.46
2022-11-18T08:16:34.899Z,100947.73
2022-11-18T08:19:03.532Z,100934.53
2022-11-18T08:21:32.126Z,100945.55
2022-11-18T08:24:01.210Z,100943.81
2022-11-18T08:26:29.706Z,100947.17
2022-11-18T08:28:58.905Z,100941.70
2022-11-18T08:31:29.150Z,100943.98
2022-11-18T08:34:03.368Z,100940.23
2022-11-18T08:36:34.409Z,100941.53
2022-11-18T08:39:05.925Z,100942.14
2022-11-18T08:41:43.220Z,100936.46
2022-11-18T08:44:13.929Z,100931.13
2022-11-18T08:46:45.001Z,100931.10
2022-11-18T08:49:13.209Z,100930.56
2022-11-18T08:51:41.577Z,100926.57
2022-11-18T08:54:09.909Z,100928.02
2022-11-18T08:56:38.191Z,100931.10
2022-11-18T08:59:07.041Z,100933.65
2022-11-18T09:01:37.482Z,100936.75
2022-11-18T09:04:05.661Z,100937.39
2022-11-18T09:06:35.046Z,100932.47
2022-11-18T09:09:06.316Z,100936.46
2022-11-18T09:11:35.792Z,100938.11
2022-11-18T09:16:52.138Z,100936.15
2022-11-18T09:22:09.748Z,100933.91
2022-11-18T09:24:38.280Z,100940.61
2022-11-18T09:27:12.215Z,100936.67
2022-11-18T09:29:42.037Z,100936.50
2022-11-18T09:32:10.552Z,100936.74
2022-11-18T09:34:39.078Z,100937.64
2022-11-18T09:37:07.572Z,100940.40
2022-11-18T09:39:37.344Z,100934.00
2022-11-18T09:42:44.179Z,100937.05
2022-11-18T09:45:15.291Z,100935.12
2022-11-18T09:47:45.524Z,100926.64
2022-11-18T09:53:17.600Z,100933.70
2022-11-18T09:55:47.197Z,100929.11
2022-11-18T09:58:25.036Z,100930.75
2022-11-18T10:00:53.334Z,100927.90
2022-11-18T10:03:30.561Z,100930.48
2022-11-18T10:06:05.171Z,100932.73
2022-11-18T10:08:40.512Z,100905.20
2022-11-18T10:11:16.970Z,100928.52
2022-11-18T10:14:03.221Z,100930.61
2022-11-18T10:17:06.511Z,100926.35
2022-11-18T10:19:42.248Z,100926.71
2022-11-18T10:22:28.404Z,100922.08
2022-11-18T10:24:58.513Z,100923.25
2022-11-18T10:27:35.252Z,100927.56
2022-11-18T10:30:13.695Z,100912.23
2022-11-18T10:33:02.414Z,100923.02
2022-11-18T10:35:38.884Z,100926.14
2022-11-18T10:38:18.595Z,100927.25
2022-11-18T10:40:52.843Z,100928.84
2022-11-18T10:43:53.583Z,100935.07
2022-11-18T10:46:26.679Z,100939.40
2022-11-18T10:49:14.715Z,100942.91
2022-11-18T10:51:42.783Z,100946.23
2022-11-18T10:54:23.671Z,100944.11
2022-11-18T10:57:05.463Z,100944.02
2022-11-18T10:59:39.898Z,100934.88
2022-11-18T11:02:41.533Z,100939.45
2022-11-18T11:05:23.742Z,100942.37
2022-11-18T11:08:34.406Z,100948.43
2022-11-18T11:10:59.582Z,100935.17
2022-11-18T11:13:30.991Z,100956.36
2022-11-18T11:16:03.452Z,100960.54
2022-11-18T11:18:42.675Z,100967.31
2022-11-18T11:21:15.757Z,100967.31
2022-11-18T11:23:46.267Z,100957.96
2022-11-18T11:30:14.593Z,100960.98
2022-11-18T11:32:48.713Z,100960.84
2022-11-18T11:35:28.659Z,100960.31
2022-11-18T11:38:04.369Z,100964.20
2022-11-18T11:40:51.092Z,100968.07
2022-11-18T11:43:37.143Z,100977.92
2022-11-18T11:46:27.303Z,100975.73
2022-11-18T11:49:18.670Z,100979.11
2022-11-18T11:52:02.870Z,100981.44
2022-11-18T11:55:03.405Z,100983.64
2022-11-18T11:58:02.401Z,100988.52
2022-11-18T12:00:34.993Z,100989.52
2022-11-18T12:03:33.659Z,100989.05
2022-11-18T12:06:01.759Z,100990.52
2022-11-18T12:08:33.153Z,100996.28
2022-11-18T12:11:13.900Z,101002.90
2022-11-18T12:13:47.754Z,101003.69
2022-11-18T12:16:43.704Z,101002.83
2022-11-18T12:19:18.636Z,101000.27
2022-11-18T12:21:46.955Z,100999.52
2022-11-18T12:24:17.749Z,101000.03
2022-11-18T12:26:47.703Z,100993.61
2022-11-18T12:29:20.328Z,100993.83
2022-11-18T12:31:52.107Z,100980.70
2022-11-18T12:34:25.971Z,100996.48
2022-11-18T12:36:54.700Z,101004.98
2022-11-18T12:39:25.887Z,100992.29
2022-11-18T12:42:20.092Z,101009.01
2022-11-18T12:44:51.263Z,101011.44
2022-11-18T12:47:48.857Z,101011.92
2022-11-18T12:50:17.444Z,101012.31
2022-11-18T12:52:47.995Z,101015.46
2022-11-18T12:55:24.390Z,101014.39
2022-11-18T12:57:52.678Z,101014.67
2022-11-18T13:00:23.827Z,101022.14
2022-11-18T13:02:57.554Z,101027.75
2022-11-18T13:05:34.767Z,101028.61
2022-11-18T13:08:13.992Z,101027.84
2022-11-18T13:11:26.698Z,101021.30
2022-11-18T13:14:15.520Z,100999.20
2022-11-18T13:17:03.445Z,101025.26
2022-11-18T13:19:31.625Z,101023.98
2022-11-18T13:22:20.307Z,101025.91
2022-11-18T13:24:53.219Z,101012.86
2022-11-18T13:27:35.604Z,101028.24
2022-11-18T13:30:12.112Z,101030.69
2022-11-18T13:32:45.900Z,101031.02
2022-11-18T13:35:18.925Z,101033.96
2022-11-18T13:37:59.205Z,101033.88
2022-11-18T13:40:38.890Z,101038.61
2022-11-18T13:43:11.161Z,101037.73
2022-11-18T13:45:41.012Z,101040.55
2022-11-18T13:48:13.049Z,101043.38
2022-11-18T13:50:51.450Z,101044.79
2022-11-18T13:53:37.256Z,101025.52
2022-11-18T13:56:16.502Z,101046.87
2022-11-18T13:59:17.348Z,101033.65
2022-11-18T14:01:45.852Z,101038.57
2022-11-18T14:04:21.086Z,101036.35
2022-11-18T14:06:49.820Z,101051.95
2022-11-18T14:09:25.991Z,101057.48
2022-11-18T14:15:32.742Z,101064.15
2022-11-18T14:18:02.519Z,101065.03
2022-11-18T14:20:31.408Z,101064.70
2022-11-18T14:23:01.724Z,101070.20
2022-11-18T14:25:36.194Z,101069.50
2022-11-18T14:28:22.850Z,101074.63
2022-11-18T14:31:18.723Z,101076.63
2022-11-18T14:34:14.637Z,101076.52
2022-11-18T14:36:43.371Z,101080.80
2022-11-18T14:39:27.535Z,101080.98
2022-11-18T14:41:57.446Z,101080.36
2022-11-18T14:44:27.806Z,101085.08
2022-11-18T14:47:17.748Z,101083.67
2022-11-18T14:49:46.087Z,101086.44
2022-11-18T14:52:14.307Z,101086.91
2022-11-18T14:54:42.502Z,101085.59
2022-11-18T14:57:14.604Z,101088.82
2022-11-18T14:59:43.019Z,101091.39
2022-11-18T15:02:18.305Z,101092.23
2022-11-18T15:04:47.096Z,101093.88
2022-11-18T15:07:21.734Z,101093.27
2022-11-18T15:09:51.789Z,101098.94
2022-11-18T15:12:19.990Z,101094.77
2022-11-18T15:14:48.146Z,101096.73
2022-11-18T15:17:16.456Z,101100.21
2022-11-18T15:19:44.746Z,101104.17
2022-11-18T15:22:13.336Z,101106.89
2022-11-18T15:24:41.512Z,101112.08
2022-11-18T15:27:10.336Z,101113.45
2022-11-18T15:29:38.666Z,101115.17
2022-11-18T15:32:06.934Z,101117.36
2022-11-18T15:34:35.159Z,101120.73
2022-11-18T15:37:03.972Z,101128.23
2022-11-18T15:39:32.208Z,101128.02
2022-11-18T15:42:00.435Z,101130.42
2022-11-18T15:44:28.783Z,101131.52
2022-11-18T15:46:57.397Z,101128.24
2022-11-18T15:49:26.031Z,101131.66
2022-11-18T15:51:54.237Z,101132.52
2022-11-18T15:54:23.243Z,101143.19
2022-11-18T15:56:51.711Z,101144.31
2022-11-18T15:59:20.149Z,101144.98
2022-11-18T16:01:49.633Z,101149.39
2022-11-18T16:04:19.408Z,101153.62
2022-11-18T16:06:48.734Z,101158.02
2022-11-18T16:09:18.204Z,101152.64
2022-11-18T16:12:05.866Z,101153.97
2022-11-18T16:14:37.388Z,101152.32
2022-11-18T16:17:05.578Z,101152.16
2022-11-18T16:19:33.884Z,101147.85
2022-11-18T16:22:02.449Z,101150.45
2022-11-18T16:24:30.823Z,101149.77
2022-11-18T16:26:59.429Z,101152.34
2022-11-18T16:29:27.819Z,101137.14
2022-11-18T16:31:56.369Z,101155.20
2022-11-18T16:34:27.266Z,101156.65
2022-11-18T16:36:57.789Z,101158.61
2022-11-18T16:39:27.767Z,101158.75
2022-11-18T16:42:06.674Z,101144.31
2022-11-18T16:44:37.642Z,101157.85
2022-11-18T16:47:13.872Z,101159.22
2022-11-18T16:49:44.297Z,101158.93
2022-11-18T16:52:12.780Z,101160.27
2022-11-18T16:54:45.332Z,101159.70
2022-11-18T16:57:14.527Z,101163.71
2022-11-18T16:59:43.139Z,101164.75
2022-11-18T17:02:13.789Z,101162.83
2022-11-18T17:04:42.944Z,101167.39
2022-11-18T17:07:11.489Z,101160.34
2022-11-18T17:09:40.118Z,101157.52
2022-11-18T17:12:08.457Z,101161.30
2022-11-18T17:14:38.384Z,101158.34
2022-11-18T17:17:07.594Z,101161.64
2022-11-18T17:19:35.989Z,101148.90
2022-11-18T17:22:04.263Z,101165.23
2022-11-18T17:24:32.860Z,101167.99
2022-11-18T17:27:01.272Z,101165.87
2022-11-18T17:29:29.910Z,101169.91
2022-11-18T17:31:58.343Z,101169.30
2022-11-18T17:34:26.895Z,101168.56
2022-11-18T17:36:55.236Z,101171.45
2022-11-18T17:39:23.552Z,101172.23
2022-11-18T17:42:10.381Z,101174.65
2022-11-18T17:44:38.722Z,101172.91
2022-11-18T17:47:07.218Z,101176.00
2022-11-18T17:49:35.837Z,101177.34
2022-11-18T17:52:04.231Z,101177.56
2022-11-18T17:54:32.710Z,101181.35
2022-11-18T17:57:01.346Z,101179.69
2022-11-18T17:59:29.902Z,101181.54
2022-11-18T18:01:59.784Z,101181.81
2022-11-18T18:04:28.989Z,101154.88
2022-11-18T18:06:57.398Z,101181.52
2022-11-18T18:09:30.398Z,101170.08
2022-11-18T18:12:00.967Z,101175.30
2022-11-18T18:14:29.187Z,101175.11
2022-11-18T18:16:57.650Z,101179.28
2022-11-18T18:19:26.121Z,101168.16
2022-11-18T18:21:54.485Z,101171.36
2022-11-18T18:24:23.278Z,101151.20
2022-11-18T18:26:52.609Z,101163.13
2022-11-18T18:29:21.526Z,101178.08
2022-11-18T18:31:50.464Z,101175.41
2022-11-18T18:34:19.529Z,101162.89
2022-11-18T18:36:47.986Z,101172.66
2022-11-18T18:39:16.536Z,101171.75
2022-11-18T18:41:46.011Z,101175.64
2022-11-18T18:44:18.551Z,101177.70
2022-11-18T18:46:47.340Z,101184.20
2022-11-18T18:49:20.722Z,101187.27
2022-11-18T18:51:50.279Z,101173.50
2022-11-18T18:54:20.559Z,101186.80
2022-11-18T18:56:49.200Z,101193.04
2022-11-18T18:59:17.537Z,101194.28
2022-11-18T19:01:45.811Z,101196.34
2022-11-18T19:04:14.559Z,101201.20
2022-11-18T19:06:53.626Z,101203.39
2022-11-18T19:09:26.409Z,101173.48
2022-11-18T19:12:13.917Z,101202.21
2022-11-18T19:14:42.475Z,101205.44
2022-11-18T19:20:18.381Z,101210.29
2022-11-18T19:22:49.518Z,101211.08
2022-11-18T19:25:18.294Z,101211.45
2022-11-18T19:27:46.911Z,101210.84
2022-11-18T19:30:15.534Z,101212.12
2022-11-18T19:32:43.960Z,101213.65
2022-11-18T19:35:12.457Z,101212.90
2022-11-18T19:37:41.340Z,101211.13
2022-11-18T19:40:11.136Z,101208.73
2022-11-18T19:42:40.825Z,101211.48
2022-11-18T19:45:11.527Z,101211.01
2022-11-18T19:47:40.256Z,101208.31
2022-11-18T19:50:09.568Z,101195.72
2022-11-18T19:52:38.235Z,101203.30
2022-11-18T19:55:08.178Z,101204.48
2022-11-18T19:57:36.670Z,101202.27
2022-11-18T20:00:05.552Z,101201.98
2022-11-18T20:02:38.834Z,101200.17
2022-11-18T20:05:26.112Z,101195.67
2022-11-18T20:07:55.933Z,101196.52
2022-11-18T20:10:24.933Z,101194.46
2022-11-18T20:12:53.525Z,101194.98
2022-11-18T20:15:22.013Z,101192.14
2022-11-18T20:17:50.222Z,101184.50
2022-11-18T20:20:18.604Z,101186.15
2022-11-18T20:22:46.884Z,101184.85
2022-11-18T20:25:15.733Z,101186.98
2022-11-18T20:27:44.109Z,101190.45
2022-11-18T20:30:12.815Z,101189.75
2022-11-18T20:32:41.230Z,101192.74
2022-11-18T20:35:09.468Z,101193.42
2022-11-18T20:37:37.684Z,101198.05
2022-11-18T20:40:06.872Z,101194.92
2022-11-18T20:42:53.877Z,101186.94
2022-11-18T20:45:22.153Z,101186.23
2022-11-18T20:47:50.344Z,101179.44
2022-11-18T20:50:18.931Z,101183.30
2022-11-18T20:52:47.095Z,101183.25
2022-11-18T20:55:16.051Z,101176.51
2022-11-18T20:57:44.237Z,101181.82
2022-11-18T21:00:13.098Z,101179.09
2022-11-18T21:02:41.326Z,101181.27
2022-11-18T21:05:09.678Z,101175.72
2022-11-18T21:07:37.999Z,101173.69
2022-11-18T21:10:08.211Z,101167.94
2022-11-18T21:12:36.530Z,101170.63
2022-11-18T21:15:05.232Z,101177.45
2022-11-18T21:17:33.428Z,101172.96
2022-11-18T21:20:21.529Z,101178.20
2022-11-18T21:22:49.823Z,101181.49
2022-11-18T21:25:18.017Z,101179.36
2022-11-18T21:27:46.708Z,101182.18
2022-11-18T21:30:15.090Z,101183.13
2022-11-18T21:32:43.292Z,101184.75
2022-11-18T21:35:11.469Z,101190.20
2022-11-18T21:37:39.664Z,101187.42
2022-11-18T21:40:08.351Z,101176.37
2022-11-18T21:42:37.120Z,101193.73
2022-11-18T21:45:06.905Z,101189.28
2022-11-18T21:47:35.208Z,101190.10
2022-11-18T21:50:03.698Z,101190.25
2022-11-18T21:52:31.828Z,101174.08
2022-11-18T21:55:01.798Z,101188.55
2022-11-18T21:57:30.049Z,101197.60
2022-11-18T21:59:58.196Z,101200.56
2022-11-18T22:02:26.471Z,101202.52
2022-11-18T22:04:56.124Z,101202.44
2022-11-18T22:07:25.521Z,101203.95
2022-11-18T22:09:55.915Z,101208.20
2022-11-18T22:12:24.913Z,101210.74
2022-11-18T22:14:53.242Z,101210.69
2022-11-18T22:17:21.564Z,101212.47
2022-11-18T22:19:50.173Z,101209.01
2022-11-18T22:22:18.532Z,101210.48
2022-11-18T22:24:46.719Z,101213.14
2022-11-18T22:27:15.007Z,101198.21
2022-11-18T22:29:43.270Z,101209.80
2022-11-18T22:32:11.454Z,101211.23
2022-11-18T22:34:39.491Z,101210.17
2022-11-18T22:37:07.684Z,101213.67
2022-11-18T22:39:35.860Z,101215.31
2022-11-18T22:42:22.872Z,101210.36
2022-11-18T22:44:51.294Z,101213.14
2022-11-18T22:47:19.572Z,101213.95
2022-11-18T22:49:49.875Z,101211.90
2022-11-18T22:52:20.438Z,101212.11
2022-11-18T22:54:48.592Z,101209.49
2022-11-18T22:57:16.894Z,101211.66
2022-11-18T22:59:45.536Z,101207.91
2022-11-18T23:02:13.740Z,101205.50
2022-11-18T23:04:41.917Z,101203.53
2022-11-18T23:07:10.140Z,101202.70
2022-11-18T23:09:38.419Z,101204.08
2022-11-18T23:12:24.846Z,101205.27
2022-11-18T23:14:53.088Z,101207.52
2022-11-18T23:17:21.259Z,101204.43
2022-11-18T23:19:50.050Z,101205.67
2022-11-18T23:22:18.571Z,101189.85
2022-11-18T23:24:47.096Z,101204.41
2022-11-18T23:27:15.594Z,101210.19
2022-11-18T23:29:43.881Z,101208.16
2022-11-18T23:32:12.224Z,101207.58
2022-11-18T23:34:40.654Z,101207.27
2022-11-18T23:37:09.102Z,101193.58
2022-11-18T23:39:37.430Z,101211.02
2022-11-18T23:42:06.314Z,101212.34
2022-11-18T23:44:46.278Z,101212.14
2022-11-18T23:47:14.722Z,101209.46
2022-11-18T23:49:43.213Z,101205.54
2022-11-18T23:52:11.524Z,101206.67
2022-11-18T23:54:39.846Z,101202.57
2022-11-18T23:57:08.334Z,101199.10
2022-11-18T23:59:36.540Z,101196.33
